AAA583 YPBO-YPPH
Flight info
| Callsign | AAA583 |
|---|---|
| Flight time | 1h 3m |
| Altitude | 30000 |
| Route | PBO Q7 ISDOR Q9 AVPAL Q38 JULIM |
| Aircraft | B738/M-SDE2E3FGHIRWXY/LB1 |
Departure
| Time | 2026-05-04 08:10 |
|---|---|
| Airport | Paraburdoo Airport (YPBO) |
Arrival
| Time | 2026-05-04 09:14 |
|---|---|
| Airport | Perth International Airport (YPPH) |
| Time | Latitude | Longitude | Altitude | Speed | Heading |
|---|---|---|---|---|---|
| 2026-05-04 07:55 | -23.17358 | 117.74720 | 1396 ft | 0 kts | 195° |
| 2026-05-04 08:04 | -23.17360 | 117.74718 | 1404 ft | 0 kts | 212° |
| 2026-05-04 08:04 | -23.17360 | 117.74715 | 1406 ft | 0 kts | 242° |
| 2026-05-04 08:04 | -23.17359 | 117.74708 | 1405 ft | 1 kts | 276° |
| 2026-05-04 08:05 | -23.17352 | 117.74700 | 1406 ft | 2 kts | 325° |
| 2026-05-04 08:05 | -23.17338 | 117.74701 | 1400 ft | 3 kts | 17° |
| 2026-05-04 08:05 | -23.17315 | 117.74720 | 1402 ft | 5 kts | 43° |
| 2026-05-04 08:05 | -23.17278 | 117.74723 | 1399 ft | 6 kts | 339° |
| 2026-05-04 08:06 | -23.17228 | 117.74699 | 1405 ft | 9 kts | 335° |
| 2026-05-04 08:06 | -23.17173 | 117.74674 | 1402 ft | 9 kts | 351° |
| 2026-05-04 08:06 | -23.17132 | 117.74716 | 1401 ft | 9 kts | 65° |
| 2026-05-04 08:06 | -23.17094 | 117.74803 | 1403 ft | 17 kts | 64° |
| 2026-05-04 08:08 | -23.16752 | 117.75601 | 1399 ft | 1 kts | 211° |
| 2026-05-04 08:08 | -23.16758 | 117.75586 | 1400 ft | 4 kts | 243° |
| 2026-05-04 08:10 | -23.21990 | 117.70258 | 3552 ft | 221 kts | 160° |
| 2026-05-04 08:11 | -23.23512 | 117.70800 | 3739 ft | 241 kts | 163° |
| 2026-05-04 08:11 | -23.26926 | 117.71659 | 4585 ft | 265 kts | 171° |
| 2026-05-04 08:11 | -23.28752 | 117.71911 | 5427 ft | 264 kts | 173° |
| 2026-05-04 08:12 | -23.30589 | 117.72069 | 6167 ft | 268 kts | 175° |
| 2026-05-04 08:12 | -23.32461 | 117.72158 | 6819 ft | 273 kts | 178° |
| 2026-05-04 08:12 | -23.34327 | 117.72189 | 7603 ft | 271 kts | 180° |
| 2026-05-04 08:12 | -23.36230 | 117.72179 | 8318 ft | 274 kts | 181° |
| 2026-05-04 08:13 | -23.38148 | 117.72137 | 9039 ft | 276 kts | 182° |
| 2026-05-04 08:13 | -23.40093 | 117.72070 | 9658 ft | 284 kts | 182° |
| 2026-05-04 08:13 | -23.42074 | 117.71983 | 10331 ft | 286 kts | 184° |
| 2026-05-04 08:13 | -23.44115 | 117.71881 | 10616 ft | 305 kts | 184° |
| 2026-05-04 08:14 | -23.46304 | 117.71761 | 10792 ft | 325 kts | 184° |
| 2026-05-04 08:14 | -23.48628 | 117.71626 | 10974 ft | 344 kts | 184° |
| 2026-05-04 08:14 | -23.51078 | 117.71477 | 11132 ft | 361 kts | 184° |
| 2026-05-04 08:16 | -23.69368 | 117.70301 | 14922 ft | 387 kts | 185° |
| 2026-05-04 08:16 | -23.72078 | 117.70124 | 15356 ft | 393 kts | 185° |
| 2026-05-04 08:16 | -23.74813 | 117.69945 | 15942 ft | 394 kts | 185° |
| 2026-05-04 08:17 | -23.77527 | 117.69766 | 16442 ft | 399 kts | 185° |
| 2026-05-04 08:17 | -23.80311 | 117.69583 | 16920 ft | 402 kts | 185° |
| 2026-05-04 08:17 | -23.83110 | 117.69400 | 17483 ft | 404 kts | 185° |
| 2026-05-04 08:17 | -23.85933 | 117.69213 | 17950 ft | 408 kts | 185° |
| 2026-05-04 08:19 | -24.06200 | 117.67879 | 20964 ft | 426 kts | 185° |
| 2026-05-04 08:19 | -24.09168 | 117.67683 | 21375 ft | 429 kts | 185° |
| 2026-05-04 08:20 | -24.12153 | 117.67486 | 21769 ft | 431 kts | 185° |
| 2026-05-04 08:20 | -24.15152 | 117.67288 | 22159 ft | 434 kts | 186° |
| 2026-05-04 08:20 | -24.18174 | 117.67088 | 22553 ft | 436 kts | 185° |
| 2026-05-04 08:20 | -24.21212 | 117.66887 | 22925 ft | 438 kts | 185° |
| 2026-05-04 08:21 | -24.24265 | 117.66686 | 23299 ft | 441 kts | 186° |
| 2026-05-04 08:21 | -24.27332 | 117.66483 | 23672 ft | 443 kts | 186° |
| 2026-05-04 08:21 | -24.30373 | 117.66282 | 23988 ft | 444 kts | 186° |
| 2026-05-04 08:21 | -24.33461 | 117.66078 | 24313 ft | 445 kts | 186° |
| 2026-05-04 08:22 | -24.36557 | 117.65873 | 24643 ft | 446 kts | 186° |
| 2026-05-04 08:22 | -24.39639 | 117.65668 | 24962 ft | 447 kts | 187° |
| 2026-05-04 08:24 | -24.61537 | 117.64214 | 26974 ft | 455 kts | 188° |
| 2026-05-04 08:24 | -24.64696 | 117.64004 | 27249 ft | 455 kts | 188° |
| 2026-05-04 08:24 | -24.67864 | 117.63793 | 27494 ft | 457 kts | 188° |
| 2026-05-04 08:24 | -24.71039 | 117.63581 | 27747 ft | 457 kts | 188° |
| 2026-05-04 08:25 | -24.74215 | 117.63370 | 28075 ft | 457 kts | 188° |
| 2026-05-04 08:25 | -24.77383 | 117.63159 | 28429 ft | 455 kts | 188° |
| 2026-05-04 08:25 | -24.80535 | 117.62950 | 28863 ft | 452 kts | 188° |
| 2026-05-04 08:25 | -24.83622 | 117.62747 | 29320 ft | 449 kts | 189° |
| 2026-05-04 08:26 | -24.86726 | 117.62541 | 29750 ft | 446 kts | 189° |
| 2026-05-04 08:27 | -25.08136 | 117.61109 | 32184 ft | 434 kts | 191° |
| 2026-05-04 08:28 | -25.11102 | 117.60910 | 32510 ft | 432 kts | 191° |
| 2026-05-04 08:28 | -25.14101 | 117.60709 | 32812 ft | 431 kts | 191° |
| 2026-05-04 08:28 | -25.17091 | 117.60507 | 33119 ft | 430 kts | 191° |
| 2026-05-04 08:28 | -25.20074 | 117.60307 | 33450 ft | 428 kts | 191° |
| 2026-05-04 08:29 | -25.23037 | 117.60108 | 33792 ft | 426 kts | 192° |
| 2026-05-04 08:29 | -25.25997 | 117.59909 | 34089 ft | 425 kts | 192° |
| 2026-05-04 08:29 | -25.28945 | 117.59710 | 34355 ft | 424 kts | 192° |
| 2026-05-04 08:31 | -25.49309 | 117.58339 | 36091 ft | 415 kts | 194° |
| 2026-05-04 08:33 | -25.69276 | 117.56986 | 37548 ft | 410 kts | 195° |
| 2026-05-04 08:33 | -25.72123 | 117.56794 | 37771 ft | 409 kts | 195° |
| 2026-05-04 08:35 | -25.91925 | 117.55451 | 38163 ft | 407 kts | 195° |
| 2026-05-04 08:35 | -25.94745 | 117.55259 | 38158 ft | 406 kts | 195° |
| 2026-05-04 08:35 | -26.00375 | 117.54876 | 38164 ft | 405 kts | 196° |
| 2026-05-04 08:37 | -26.19763 | 117.52807 | 38181 ft | 395 kts | 201° |
| 2026-05-04 08:38 | -26.25191 | 117.51679 | 38176 ft | 398 kts | 201° |
| 2026-05-04 08:38 | -26.30654 | 117.50567 | 38177 ft | 400 kts | 201° |
| 2026-05-04 08:40 | -26.52800 | 117.46171 | 38170 ft | 408 kts | 200° |
| 2026-05-04 08:41 | -26.58401 | 117.45061 | 38186 ft | 409 kts | 200° |
| 2026-05-04 08:41 | -26.63972 | 117.43955 | 38187 ft | 409 kts | 200° |
| 2026-05-04 08:42 | -26.69582 | 117.42840 | 38181 ft | 409 kts | 200° |
| 2026-05-04 08:42 | -26.75190 | 117.41723 | 38190 ft | 410 kts | 200° |
| 2026-05-04 08:43 | -26.80805 | 117.40606 | 38190 ft | 410 kts | 200° |
| 2026-05-04 08:43 | -26.86383 | 117.39493 | 38194 ft | 410 kts | 200° |
| 2026-05-04 08:44 | -26.92008 | 117.38371 | 38189 ft | 411 kts | 200° |
| 2026-05-04 08:46 | -27.48422 | 117.27043 | 38208 ft | 415 kts | 199° |
| 2026-05-04 08:46 | -27.71261 | 117.22424 | 38221 ft | 418 kts | 198° |
| 2026-05-04 08:47 | -27.94228 | 117.17755 | 38222 ft | 420 kts | 198° |
| 2026-05-04 08:47 | -28.17126 | 117.13070 | 38231 ft | 422 kts | 198° |
| 2026-05-04 08:48 | -28.40326 | 117.08305 | 38241 ft | 425 kts | 198° |
| 2026-05-04 08:48 | -28.63628 | 117.03506 | 38237 ft | 426 kts | 198° |
| 2026-05-04 08:49 | -28.87036 | 116.98667 | 38246 ft | 428 kts | 197° |
| 2026-05-04 08:50 | -29.69795 | 116.81374 | 38261 ft | 437 kts | 197° |
| 2026-05-04 08:51 | -29.93760 | 116.76312 | 38265 ft | 438 kts | 197° |
| 2026-05-04 08:51 | -30.05531 | 116.73824 | 37923 ft | 425 kts | 196° |
| 2026-05-04 08:51 | -30.14589 | 116.71900 | 35948 ft | 430 kts | 195° |
| 2026-05-04 08:52 | -30.17567 | 116.71260 | 34978 ft | 441 kts | 194° |
| 2026-05-04 08:52 | -30.20626 | 116.70603 | 33888 ft | 453 kts | 193° |
| 2026-05-04 08:52 | -30.23765 | 116.69933 | 32816 ft | 463 kts | 193° |
| 2026-05-04 08:52 | -30.26941 | 116.69257 | 32010 ft | 465 kts | 193° |
| 2026-05-04 08:53 | -30.30134 | 116.68579 | 31225 ft | 467 kts | 193° |
| 2026-05-04 08:54 | -30.52204 | 116.63865 | 26426 ft | 446 kts | 192° |
| 2026-05-04 08:55 | -30.55234 | 116.63199 | 25852 ft | 441 kts | 193° |
| 2026-05-04 08:55 | -30.58172 | 116.62253 | 25276 ft | 436 kts | 199° |
| 2026-05-04 08:55 | -30.61024 | 116.61127 | 24718 ft | 431 kts | 200° |
| 2026-05-04 08:55 | -30.63839 | 116.59973 | 24193 ft | 427 kts | 200° |
| 2026-05-04 08:57 | -30.82854 | 116.52495 | 20088 ft | 401 kts | 198° |
| 2026-05-04 09:01 | -31.18092 | 116.38685 | 12336 ft | 365 kts | 197° |
| 2026-05-04 09:01 | -31.20491 | 116.37740 | 11808 ft | 362 kts | 197° |
| 2026-05-04 09:01 | -31.22872 | 116.36802 | 11313 ft | 360 kts | 197° |
| 2026-05-04 09:01 | -31.25202 | 116.35882 | 11135 ft | 348 kts | 196° |
| 2026-05-04 09:02 | -31.27458 | 116.34990 | 10974 ft | 337 kts | 197° |
| 2026-05-04 09:02 | -31.29615 | 116.34138 | 10828 ft | 326 kts | 196° |
| 2026-05-04 09:02 | -31.31732 | 116.33301 | 10688 ft | 316 kts | 196° |
| 2026-05-04 09:02 | -31.33786 | 116.32490 | 10556 ft | 307 kts | 196° |
| 2026-05-04 09:03 | -31.35776 | 116.31703 | 10429 ft | 298 kts | 196° |
| 2026-05-04 09:03 | -31.37709 | 116.30939 | 10299 ft | 289 kts | 196° |
| 2026-05-04 09:03 | -31.39610 | 116.30188 | 9995 ft | 288 kts | 196° |
| 2026-05-04 09:03 | -31.41078 | 116.29607 | 9776 ft | 286 kts | 196° |
| 2026-05-04 09:04 | -31.42975 | 116.28959 | 9461 ft | 283 kts | 191° |
| 2026-05-04 09:04 | -31.44867 | 116.28461 | 9155 ft | 282 kts | 189° |
| 2026-05-04 09:04 | -31.46729 | 116.27999 | 8864 ft | 280 kts | 189° |
| 2026-05-04 09:04 | -31.48634 | 116.27525 | 8574 ft | 279 kts | 189° |
| 2026-05-04 09:05 | -31.50546 | 116.27043 | 8085 ft | 285 kts | 189° |
| 2026-05-04 09:05 | -31.52488 | 116.26547 | 7734 ft | 286 kts | 189° |
| 2026-05-04 09:05 | -31.54433 | 116.26045 | 7414 ft | 286 kts | 190° |
| 2026-05-04 09:05 | -31.56370 | 116.25542 | 7119 ft | 285 kts | 189° |
| 2026-05-04 09:06 | -31.58301 | 116.25039 | 6822 ft | 284 kts | 190° |
| 2026-05-04 09:07 | -31.71365 | 116.21616 | 5035 ft | 262 kts | 190° |
| 2026-05-04 09:08 | -31.73140 | 116.21150 | 4771 ft | 260 kts | 190° |
| 2026-05-04 09:08 | -31.74903 | 116.20687 | 4506 ft | 259 kts | 190° |
| 2026-05-04 09:08 | -31.76642 | 116.20230 | 4241 ft | 257 kts | 190° |
| 2026-05-04 09:08 | -31.78371 | 116.19774 | 3969 ft | 251 kts | 190° |
| 2026-05-04 09:09 | -31.79999 | 116.19345 | 3870 ft | 237 kts | 189° |
| 2026-05-04 09:09 | -31.81567 | 116.18931 | 3759 ft | 226 kts | 190° |
| 2026-05-04 09:09 | -31.83052 | 116.18405 | 3551 ft | 225 kts | 208° |
| 2026-05-04 09:09 | -31.84041 | 116.17028 | 3385 ft | 226 kts | 250° |
| 2026-05-04 09:10 | -31.84422 | 116.15253 | 3205 ft | 227 kts | 249° |
| 2026-05-04 09:10 | -31.85084 | 116.13600 | 3077 ft | 228 kts | 238° |
| 2026-05-04 09:10 | -31.85852 | 116.12059 | 2790 ft | 231 kts | 238° |
| 2026-05-04 09:10 | -31.86675 | 116.10422 | 2483 ft | 234 kts | 237° |
| 2026-05-04 09:11 | -31.87504 | 116.08798 | 2188 ft | 234 kts | 237° |
| 2026-05-04 09:11 | -31.88328 | 116.07187 | 1856 ft | 224 kts | 236° |
| 2026-05-04 09:11 | -31.89112 | 116.05656 | 1555 ft | 213 kts | 236° |
| 2026-05-04 09:11 | -31.89843 | 116.04227 | 1290 ft | 198 kts | 236° |
| 2026-05-04 09:12 | -31.90516 | 116.02912 | 1049 ft | 178 kts | 235° |
| 2026-05-04 09:12 | -31.91126 | 116.01722 | 805 ft | 161 kts | 237° |
| 2026-05-04 09:14 | -31.93912 | 115.96268 | 68 ft | 15 kts | 267° |
| 2026-05-04 09:14 | -31.93835 | 115.96209 | 66 ft | 14 kts | 347° |
| 2026-05-04 09:14 | -31.93739 | 115.96189 | 65 ft | 14 kts | 352° |
| 2026-05-04 09:14 | -31.93647 | 115.96180 | 67 ft | 13 kts | 8° |
| 2026-05-04 09:15 | -31.93598 | 115.96194 | 60 ft | 4 kts | 14° |
| 2026-05-04 09:15 | -31.93574 | 115.96189 | 67 ft | 4 kts | 333° |
| 2026-05-04 09:15 | -31.93561 | 115.96163 | 60 ft | 4 kts | 283° |
| 2026-05-04 09:15 | -31.93552 | 115.96135 | 67 ft | 4 kts | 297° |
| 2026-05-04 09:17 | -31.93468 | 115.96152 | 60 ft | 0 kts | 300° |